createdAt,value
2023-01-27T00:01:19.392Z,17.85
2023-01-27T00:03:46.423Z,18.44
2023-01-27T00:06:13.495Z,18.45
2023-01-27T00:08:43.289Z,18.64
2023-01-27T00:11:09.934Z,18.56
2023-01-27T00:13:36.576Z,17.69
2023-01-27T00:16:06.331Z,18.57
2023-01-27T00:18:33.022Z,17.66
2023-01-27T00:20:59.838Z,17.61
2023-01-27T00:23:27.595Z,17.72
2023-01-27T00:25:54.117Z,16.96
2023-01-27T00:28:20.623Z,16.24
2023-01-27T00:30:47.127Z,14.77
2023-01-27T00:33:13.702Z,15.18
2023-01-27T00:36:08.134Z,15.39
2023-01-27T00:38:36.272Z,15.25
2023-01-27T00:41:02.770Z,15.05
2023-01-27T00:43:29.373Z,14.94
2023-01-27T00:45:55.935Z,15.34
2023-01-27T00:48:22.529Z,15.29
2023-01-27T00:50:49.083Z,14.47
2023-01-27T00:53:15.605Z,14.76
2023-01-27T00:55:42.183Z,15.21
2023-01-27T00:58:08.679Z,15.22
2023-01-27T01:00:35.235Z,15.50
2023-01-27T01:03:01.877Z,16.40
2023-01-27T01:05:28.459Z,16.05
2023-01-27T01:07:54.936Z,16.54
2023-01-27T01:10:21.491Z,16.67
2023-01-27T01:12:48.098Z,16.90
2023-01-27T01:15:15.037Z,16.84
2023-01-27T01:17:41.685Z,17.97
2023-01-27T01:20:09.104Z,18.17
2023-01-27T01:22:35.727Z,18.05
2023-01-27T01:25:02.257Z,17.44
2023-01-27T01:27:28.833Z,17.36
2023-01-27T01:29:55.404Z,18.10
2023-01-27T01:32:22.007Z,18.89
2023-01-27T01:34:48.487Z,18.75
2023-01-27T01:37:15.001Z,19.30
2023-01-27T01:39:41.503Z,19.04
2023-01-27T01:42:07.991Z,19.74
2023-01-27T01:44:34.507Z,19.87
2023-01-27T01:47:01.203Z,19.38
2023-01-27T01:49:39.356Z,19.24
2023-01-27T01:52:15.089Z,19.13
2023-01-27T01:54:47.244Z,18.84
2023-01-27T01:57:23.079Z,19.82
2023-01-27T02:00:01.778Z,20.24
2023-01-27T02:02:31.261Z,19.46
2023-01-27T02:05:06.175Z,19.32
2023-01-27T02:07:46.630Z,19.69
2023-01-27T02:10:13.886Z,19.72
2023-01-27T02:12:40.627Z,19.36
2023-01-27T02:15:08.698Z,18.87
2023-01-27T02:17:35.665Z,18.33
2023-01-27T02:20:02.088Z,18.75
2023-01-27T02:22:59.464Z,18.63
2023-01-27T02:25:34.905Z,18.61
2023-01-27T02:28:02.542Z,18.83
2023-01-27T02:30:29.780Z,18.17
2023-01-27T02:32:56.467Z,18.34
2023-01-27T02:35:33.282Z,18.49
2023-01-27T02:38:00.585Z,18.61
2023-01-27T02:40:30.156Z,18.33
2023-01-27T02:42:57.633Z,18.68
2023-01-27T02:45:24.260Z,18.51
2023-01-27T02:47:50.781Z,18.56
2023-01-27T02:50:17.964Z,17.79
2023-01-27T02:52:44.487Z,17.90
2023-01-27T02:55:11.263Z,18.94
2023-01-27T02:57:37.937Z,18.58
2023-01-27T03:00:04.863Z,19.23
2023-01-27T03:02:31.374Z,19.13
2023-01-27T03:04:58.043Z,18.15
2023-01-27T03:07:25.607Z,18.68
2023-01-27T03:09:52.580Z,19.14
2023-01-27T03:12:19.057Z,18.68
2023-01-27T03:14:46.231Z,18.38
2023-01-27T03:17:12.716Z,19.67
2023-01-27T03:19:39.355Z,19.48
2023-01-27T03:22:05.868Z,18.81
2023-01-27T03:24:32.407Z,19.28
2023-01-27T03:26:58.938Z,19.96
2023-01-27T03:29:25.423Z,19.99
2023-01-27T03:31:51.988Z,19.14
2023-01-27T03:34:18.544Z,19.23
2023-01-27T03:36:45.064Z,19.31
2023-01-27T03:39:11.541Z,19.05
2023-01-27T03:41:39.222Z,19.58
2023-01-27T03:44:05.691Z,19.54
2023-01-27T03:46:32.186Z,19.54
2023-01-27T03:48:58.994Z,19.43
2023-01-27T03:51:26.930Z,19.14
2023-01-27T03:53:53.835Z,19.62
2023-01-27T03:56:21.700Z,19.42
2023-01-27T03:58:49.959Z,19.80
2023-01-27T04:01:22.194Z,19.72
2023-01-27T04:03:50.773Z,19.11
2023-01-27T04:06:21.580Z,19.30
2023-01-27T04:08:48.085Z,19.61
2023-01-27T04:11:14.762Z,19.65
2023-01-27T04:13:41.302Z,20.26
2023-01-27T04:16:07.847Z,19.66
2023-01-27T04:18:34.363Z,19.23
2023-01-27T04:21:00.891Z,18.90
2023-01-27T04:23:27.415Z,19.09
2023-01-27T04:25:54.031Z,19.58
2023-01-27T04:28:37.234Z,19.91
2023-01-27T04:31:07.187Z,19.94
2023-01-27T04:33:33.753Z,19.95
2023-01-27T04:36:00.428Z,20.70
2023-01-27T04:38:27.051Z,20.67
2023-01-27T04:40:53.557Z,19.92
2023-01-27T04:43:20.055Z,20.10
2023-01-27T04:45:46.562Z,20.33
2023-01-27T04:48:13.140Z,20.57
2023-01-27T04:50:39.632Z,20.16
2023-01-27T04:53:06.107Z,20.45
2023-01-27T04:55:32.611Z,20.34
2023-01-27T04:57:59.252Z,20.75
2023-01-27T05:00:25.865Z,21.05
2023-01-27T05:02:52.393Z,20.79
2023-01-27T05:05:18.953Z,21.05
2023-01-27T05:07:45.446Z,21.82
2023-01-27T05:10:12.155Z,20.99
2023-01-27T05:12:38.711Z,21.42
2023-01-27T05:15:05.791Z,21.72
2023-01-27T05:17:33.433Z,21.43
2023-01-27T05:19:59.961Z,22.36
2023-01-27T05:22:26.475Z,21.90
2023-01-27T05:24:53.057Z,22.32
2023-01-27T05:27:19.585Z,22.83
2023-01-27T05:29:46.120Z,21.90
2023-01-27T05:32:12.899Z,21.95
2023-01-27T05:34:39.552Z,22.66
2023-01-27T05:37:06.102Z,22.58
2023-01-27T05:39:32.623Z,22.85
2023-01-27T05:41:59.269Z,22.57
2023-01-27T05:44:25.791Z,22.92
2023-01-27T05:46:52.259Z,23.03
2023-01-27T05:49:18.902Z,22.74
2023-01-27T05:51:45.389Z,22.84
2023-01-27T05:54:11.858Z,22.32
2023-01-27T05:56:38.656Z,22.26
2023-01-27T05:59:05.143Z,23.17
2023-01-27T06:01:34.032Z,23.39
2023-01-27T06:04:01.296Z,22.94
2023-01-27T06:06:30.436Z,23.87
2023-01-27T06:08:57.134Z,23.51
2023-01-27T06:11:24.204Z,23.53
2023-01-27T06:13:52.457Z,23.47
2023-01-27T06:16:21.400Z,23.65
2023-01-27T06:18:48.699Z,24.59
2023-01-27T06:21:17.984Z,23.54
2023-01-27T06:23:44.547Z,23.43
2023-01-27T06:26:14.581Z,23.39
2023-01-27T06:28:41.070Z,24.05
2023-01-27T06:31:15.240Z,25.72
2023-01-27T06:33:41.885Z,24.63
2023-01-27T06:36:12.078Z,23.91
2023-01-27T06:38:38.713Z,24.30
2023-01-27T06:41:05.649Z,23.80
2023-01-27T06:43:32.239Z,24.45
2023-01-27T06:45:58.817Z,24.80
2023-01-27T06:48:27.107Z,23.76
2023-01-27T06:50:55.794Z,24.29
2023-01-27T06:53:23.478Z,24.70
2023-01-27T06:55:55.716Z,24.11
2023-01-27T06:58:22.287Z,24.17
2023-01-27T07:00:48.796Z,24.90
2023-01-27T07:03:18.132Z,25.31
2023-01-27T07:05:44.670Z,25.61
2023-01-27T07:08:11.312Z,25.22
2023-01-27T07:10:37.843Z,24.80
2023-01-27T07:13:09.593Z,26.12
2023-01-27T07:15:36.803Z,23.97
2023-01-27T07:18:04.479Z,24.52
2023-01-27T07:20:31.902Z,24.48
2023-01-27T07:23:02.521Z,24.67
2023-01-27T07:25:31.048Z,24.68
2023-01-27T07:27:58.301Z,24.36
2023-01-27T07:30:26.500Z,24.79
2023-01-27T07:32:53.797Z,24.85
2023-01-27T07:35:20.631Z,25.10
2023-01-27T07:37:47.209Z,24.66
2023-01-27T07:40:14.004Z,24.62
2023-01-27T07:42:41.344Z,24.41
2023-01-27T07:45:08.451Z,24.40
2023-01-27T07:47:35.166Z,25.12
2023-01-27T07:50:01.681Z,24.59
2023-01-27T07:52:28.248Z,24.62
2023-01-27T07:54:54.757Z,24.40
2023-01-27T07:57:21.294Z,24.60
2023-01-27T07:59:47.791Z,24.40
2023-01-27T08:02:14.377Z,23.34
2023-01-27T08:04:52.583Z,24.78
2023-01-27T08:07:19.721Z,24.22
2023-01-27T08:09:46.278Z,24.07
2023-01-27T08:12:12.779Z,23.26
2023-01-27T08:14:39.417Z,22.78
2023-01-27T08:17:05.982Z,23.36
2023-01-27T08:19:32.474Z,23.75
2023-01-27T08:21:58.981Z,23.69
2023-01-27T08:24:25.668Z,23.66
2023-01-27T08:26:52.316Z,23.21
2023-01-27T08:29:18.878Z,22.83
2023-01-27T08:31:45.497Z,22.70
2023-01-27T08:34:12.045Z,23.29
2023-01-27T08:36:41.276Z,22.28
2023-01-27T08:39:09.512Z,22.26
2023-01-27T08:41:36.133Z,22.09
2023-01-27T08:44:02.711Z,22.97
2023-01-27T08:46:29.466Z,22.56
2023-01-27T08:48:55.981Z,22.95
2023-01-27T08:51:22.484Z,23.08
2023-01-27T08:53:49.019Z,23.52
2023-01-27T08:56:16.593Z,23.00
2023-01-27T08:58:46.112Z,23.13
2023-01-27T09:01:12.940Z,22.21
2023-01-27T09:03:39.550Z,23.59
2023-01-27T09:06:09.592Z,22.89
2023-01-27T09:08:36.134Z,23.54
2023-01-27T09:11:17.338Z,23.51
2023-01-27T09:13:43.865Z,23.61
2023-01-27T09:16:10.505Z,22.14
2023-01-27T09:18:37.074Z,22.18
2023-01-27T09:21:06.839Z,21.40
2023-01-27T09:23:34.073Z,22.51
2023-01-27T09:26:00.599Z,22.20
2023-01-27T09:28:27.178Z,21.78
2023-01-27T09:31:00.420Z,22.03
2023-01-27T09:33:27.250Z,21.71
2023-01-27T09:36:04.335Z,21.16
2023-01-27T09:38:37.848Z,21.55
2023-01-27T09:41:32.031Z,20.93
2023-01-27T09:44:08.594Z,22.83
2023-01-27T09:47:00.524Z,21.13
2023-01-27T09:49:51.394Z,20.10
2023-01-27T09:53:11.030Z,21.06
2023-01-27T09:55:52.659Z,19.87
2023-01-27T09:58:36.743Z,20.66
2023-01-27T10:01:50.496Z,19.91
2023-01-27T10:04:49.764Z,21.01
2023-01-27T10:07:16.619Z,21.05
2023-01-27T10:10:03.193Z,20.79
2023-01-27T10:13:01.959Z,19.87
2023-01-27T10:15:32.003Z,20.56
2023-01-27T10:18:07.727Z,20.93
2023-01-27T10:20:47.390Z,20.76
2023-01-27T10:23:31.084Z,20.30
2023-01-27T10:26:19.514Z,20.77
2023-01-27T10:28:51.154Z,20.39
2023-01-27T10:31:27.478Z,20.67
2023-01-27T10:33:57.062Z,21.00
2023-01-27T10:36:38.588Z,21.30
2023-01-27T10:39:24.607Z,22.58
2023-01-27T10:42:12.403Z,21.03
2023-01-27T10:44:38.904Z,21.13
2023-01-27T10:47:29.886Z,21.50
2023-01-27T10:50:07.917Z,21.43
2023-01-27T10:53:12.000Z,21.00
2023-01-27T10:56:05.045Z,21.78
2023-01-27T10:58:44.007Z,21.49
2023-01-27T11:01:21.677Z,21.48
2023-01-27T11:04:06.082Z,21.55
2023-01-27T11:06:42.588Z,21.53
2023-01-27T11:09:33.891Z,21.98
2023-01-27T11:12:11.202Z,22.14
2023-01-27T11:14:51.013Z,21.89
2023-01-27T11:17:59.426Z,21.96
2023-01-27T11:20:38.653Z,21.39
2023-01-27T11:23:23.818Z,21.23
2023-01-27T11:26:17.909Z,22.12
2023-01-27T11:28:59.264Z,21.44
2023-01-27T11:31:31.905Z,21.24
2023-01-27T11:34:35.713Z,20.80
2023-01-27T11:37:18.579Z,20.23
2023-01-27T11:39:45.323Z,20.56
2023-01-27T11:42:13.223Z,20.36
2023-01-27T11:44:43.631Z,20.04
2023-01-27T11:47:23.395Z,19.78
2023-01-27T11:49:53.448Z,19.25
2023-01-27T11:52:23.505Z,19.80
2023-01-27T11:55:16.221Z,19.50
2023-01-27T11:57:47.757Z,18.34
2023-01-27T12:00:34.809Z,19.63
2023-01-27T12:03:16.332Z,18.55
2023-01-27T12:08:44.390Z,18.78
2023-01-27T12:11:21.668Z,18.51
2023-01-27T12:14:03.951Z,18.28
2023-01-27T12:16:51.062Z,18.50
2023-01-27T12:19:25.216Z,17.83
2023-01-27T12:21:57.716Z,17.32
2023-01-27T12:24:32.695Z,18.45
2023-01-27T12:27:01.198Z,18.26
2023-01-27T12:29:27.673Z,17.42
2023-01-27T12:31:58.125Z,17.11
2023-01-27T12:34:29.303Z,18.04
2023-01-27T12:36:57.576Z,18.09
2023-01-27T12:39:33.014Z,17.83
2023-01-27T12:41:59.631Z,17.59
2023-01-27T12:44:26.293Z,17.91
2023-01-27T12:47:00.806Z,17.56
2023-01-27T12:49:37.110Z,18.04
2023-01-27T12:52:07.118Z,16.62
2023-01-27T12:54:34.611Z,17.04
2023-01-27T12:57:05.438Z,17.09
2023-01-27T12:59:34.064Z,17.19
2023-01-27T13:02:20.238Z,17.46
2023-01-27T13:04:55.535Z,16.56
2023-01-27T13:07:38.149Z,16.11
2023-01-27T13:10:16.874Z,16.78
2023-01-27T13:12:52.549Z,16.73
2023-01-27T13:15:22.428Z,16.02
2023-01-27T13:17:54.006Z,15.92
2023-01-27T13:20:30.682Z,16.87
2023-01-27T13:23:04.201Z,16.73
2023-01-27T13:25:44.324Z,16.93
2023-01-27T13:28:18.993Z,16.90
2023-01-27T13:30:52.473Z,16.22
2023-01-27T13:33:39.772Z,16.59
2023-01-27T13:36:30.289Z,15.77
2023-01-27T13:39:35.356Z,15.64
2023-01-27T13:42:04.860Z,16.01
2023-01-27T13:45:12.460Z,15.75
2023-01-27T13:47:55.150Z,15.45
2023-01-27T13:50:30.876Z,15.57
2023-01-27T13:53:00.189Z,15.61
2023-01-27T13:55:45.662Z,15.30
2023-01-27T13:58:44.416Z,16.03
2023-01-27T14:01:29.293Z,15.78
2023-01-27T14:04:23.917Z,16.39
2023-01-27T14:07:19.723Z,16.24
2023-01-27T14:10:15.802Z,15.69
2023-01-27T14:12:53.604Z,16.45
2023-01-27T14:15:44.430Z,16.78
2023-01-27T14:18:23.828Z,16.04
2023-01-27T14:24:29.656Z,16.21
2023-01-27T14:27:12.481Z,15.83
2023-01-27T14:30:14.206Z,15.12
2023-01-27T14:32:56.019Z,15.67
2023-01-27T14:35:39.738Z,15.50
2023-01-27T14:38:15.406Z,15.77
2023-01-27T14:40:51.180Z,15.38
2023-01-27T14:43:35.487Z,15.09
2023-01-27T14:46:22.541Z,15.57
2023-01-27T14:49:21.663Z,15.76
2023-01-27T14:51:56.753Z,15.34
2023-01-27T14:54:23.426Z,15.14
2023-01-27T14:57:10.946Z,15.00
2023-01-27T15:00:02.307Z,15.00
2023-01-27T15:02:53.208Z,14.62
2023-01-27T15:05:54.570Z,15.89
2023-01-27T15:08:36.672Z,15.88
2023-01-27T15:11:27.300Z,14.96
2023-01-27T15:14:34.919Z,14.89
2023-01-27T15:17:39.191Z,13.97
2023-01-27T15:20:32.009Z,13.99
2023-01-27T15:23:07.289Z,13.90
2023-01-27T15:25:40.895Z,13.63
2023-01-27T15:28:15.126Z,14.13
2023-01-27T15:31:06.625Z,13.53
2023-01-27T15:33:48.168Z,13.76
2023-01-27T15:36:29.908Z,13.04
2023-01-27T15:39:20.210Z,13.42
2023-01-27T15:42:03.378Z,13.04
2023-01-27T15:44:41.837Z,13.39
2023-01-27T15:47:19.826Z,13.36
2023-01-27T15:49:51.141Z,12.65
2023-01-27T15:52:20.539Z,12.64
2023-01-27T15:54:51.186Z,12.97
2023-01-27T15:57:29.242Z,12.99
2023-01-27T16:00:07.047Z,12.66
2023-01-27T16:02:44.068Z,12.77
2023-01-27T16:05:24.923Z,12.73
2023-01-27T16:07:57.923Z,12.13
2023-01-27T16:10:31.134Z,12.52
2023-01-27T16:13:25.875Z,12.55
2023-01-27T16:16:14.130Z,12.42
2023-01-27T16:18:47.585Z,12.91
2023-01-27T16:21:36.663Z,12.74
2023-01-27T16:24:15.540Z,12.66
2023-01-27T16:26:50.206Z,12.70
2023-01-27T16:29:36.456Z,13.14
2023-01-27T16:32:07.163Z,12.86
2023-01-27T16:34:40.058Z,12.93
2023-01-27T16:37:22.183Z,12.76
2023-01-27T16:40:06.793Z,12.82
2023-01-27T16:42:40.759Z,12.64
2023-01-27T16:45:26.984Z,13.29
2023-01-27T16:48:06.435Z,13.62
2023-01-27T16:50:37.342Z,13.77
2023-01-27T16:53:15.375Z,13.39
2023-01-27T16:55:42.167Z,13.17
2023-01-27T16:58:21.925Z,13.49
2023-01-27T17:00:49.174Z,13.32
2023-01-27T17:03:21.032Z,13.46
2023-01-27T17:05:57.745Z,13.12
2023-01-27T17:08:26.960Z,12.85
2023-01-27T17:11:06.336Z,13.75
2023-01-27T17:13:46.952Z,12.77
2023-01-27T17:16:24.230Z,13.37
2023-01-27T17:18:53.531Z,13.31
2023-01-27T17:21:51.391Z,14.66
2023-01-27T17:24:24.851Z,15.45
2023-01-27T17:26:59.813Z,16.99
2023-01-27T17:29:34.562Z,16.27
2023-01-27T17:32:01.568Z,15.11
2023-01-27T17:34:28.549Z,25.13
2023-01-27T17:37:20.496Z,42.55
2023-01-27T17:39:52.629Z,43.86
2023-01-27T17:42:20.504Z,31.21
2023-01-27T17:44:48.481Z,28.50
2023-01-27T17:47:17.838Z,22.10
2023-01-27T17:49:48.874Z,18.73
2023-01-27T17:52:22.608Z,17.44
2023-01-27T17:54:50.258Z,15.67
2023-01-27T17:57:29.119Z,15.65
2023-01-27T18:00:04.372Z,14.06
2023-01-27T18:02:35.024Z,13.33
2023-01-27T18:05:05.922Z,15.31
2023-01-27T18:07:33.376Z,14.68
2023-01-27T18:09:59.917Z,13.30
2023-01-27T18:12:35.715Z,13.77
2023-01-27T18:15:37.502Z,13.28
2023-01-27T18:18:24.573Z,13.67
2023-01-27T18:21:08.992Z,14.35
2023-01-27T18:23:46.162Z,14.03
2023-01-27T18:26:37.537Z,14.65
2023-01-27T18:29:13.248Z,13.82
2023-01-27T18:31:48.217Z,15.04
2023-01-27T18:34:26.595Z,15.19
2023-01-27T18:37:00.399Z,16.22
2023-01-27T18:39:32.523Z,14.17
2023-01-27T18:41:59.856Z,13.70
2023-01-27T18:44:26.973Z,13.04
2023-01-27T18:47:17.269Z,14.23
2023-01-27T18:50:16.254Z,13.42
2023-01-27T18:52:43.191Z,14.65
2023-01-27T18:55:27.942Z,19.55
2023-01-27T18:57:57.234Z,14.59
2023-01-27T19:00:30.453Z,14.15
2023-01-27T19:03:01.603Z,14.31
2023-01-27T19:05:34.135Z,14.34
2023-01-27T19:08:02.066Z,14.34
2023-01-27T19:10:32.366Z,14.70
2023-01-27T19:13:01.161Z,14.86
2023-01-27T19:15:31.149Z,16.29
2023-01-27T19:18:00.153Z,15.84
2023-01-27T19:20:30.084Z,15.20
2023-01-27T19:22:58.914Z,15.84
2023-01-27T19:25:29.709Z,15.92
2023-01-27T19:28:02.975Z,16.56
2023-01-27T19:30:32.571Z,16.47
2023-01-27T19:32:59.296Z,16.43
2023-01-27T19:35:30.340Z,16.99
2023-01-27T19:38:02.452Z,17.11
2023-01-27T19:40:29.656Z,16.65
2023-01-27T19:42:58.298Z,16.72
2023-01-27T19:45:27.859Z,16.18
2023-01-27T19:47:54.549Z,15.91
2023-01-27T19:50:27.512Z,15.59
2023-01-27T19:52:54.431Z,15.79
2023-01-27T19:55:21.288Z,15.54
2023-01-27T19:57:49.151Z,15.50
2023-01-27T20:00:31.494Z,15.47
2023-01-27T20:02:58.923Z,15.18
2023-01-27T20:05:27.833Z,15.23
2023-01-27T20:07:57.008Z,15.67
2023-01-27T20:10:26.948Z,15.22
2023-01-27T20:12:56.170Z,16.11
2023-01-27T20:15:23.780Z,15.35
2023-01-27T20:17:52.192Z,15.39
2023-01-27T20:20:19.929Z,15.15
2023-01-27T20:22:46.574Z,15.65
2023-01-27T20:25:18.700Z,14.86
2023-01-27T20:27:49.203Z,14.80
2023-01-27T20:30:21.457Z,14.91
2023-01-27T20:32:48.426Z,14.74
2023-01-27T20:35:17.406Z,14.61
2023-01-27T20:37:46.459Z,14.81
2023-01-27T20:40:19.023Z,15.62
2023-01-27T20:42:45.597Z,16.18
2023-01-27T20:45:13.240Z,15.31
2023-01-27T20:47:40.331Z,15.64
2023-01-27T20:50:08.800Z,16.30
2023-01-27T20:52:36.885Z,16.43
2023-01-27T20:55:04.771Z,16.79
2023-01-27T20:57:31.360Z,16.32
2023-01-27T20:59:58.048Z,16.53
2023-01-27T21:02:25.640Z,16.55
2023-01-27T21:04:53.260Z,16.98
2023-01-27T21:07:20.948Z,16.74
2023-01-27T21:09:47.599Z,17.13
2023-01-27T21:12:14.053Z,17.41
2023-01-27T21:14:40.540Z,16.95
2023-01-27T21:17:07.389Z,17.74
2023-01-27T21:19:33.871Z,17.69
2023-01-27T21:22:00.364Z,17.56
2023-01-27T21:24:26.892Z,17.22
2023-01-27T21:26:53.426Z,16.77
2023-01-27T21:29:22.904Z,17.95
2023-01-27T21:31:49.514Z,18.13
2023-01-27T21:34:16.147Z,17.34
2023-01-27T21:36:42.704Z,17.63
2023-01-27T21:39:09.297Z,17.20
2023-01-27T21:41:35.802Z,17.14
2023-01-27T21:44:03.461Z,17.29
2023-01-27T21:46:30.122Z,16.99
2023-01-27T21:48:56.784Z,16.85
2023-01-27T21:51:23.244Z,17.22
2023-01-27T21:53:49.715Z,16.99
2023-01-27T21:56:16.256Z,17.18
2023-01-27T21:58:42.747Z,17.21
2023-01-27T22:01:10.838Z,17.41
2023-01-27T22:03:38.287Z,16.83
2023-01-27T22:06:06.346Z,17.07
2023-01-27T22:08:33.151Z,17.68
2023-01-27T22:11:10.902Z,16.28
2023-01-27T22:13:38.110Z,16.83
2023-01-27T22:16:05.253Z,16.75
2023-01-27T22:18:31.825Z,17.23
2023-01-27T22:21:01.896Z,16.89
2023-01-27T22:23:28.472Z,16.91
2023-01-27T22:25:55.058Z,16.34
2023-01-27T22:28:21.605Z,17.16
2023-01-27T22:30:48.624Z,16.70
2023-01-27T22:33:15.188Z,16.53
2023-01-27T22:35:41.835Z,16.94
2023-01-27T22:38:08.441Z,16.49
2023-01-27T22:40:34.903Z,16.49
2023-01-27T22:43:01.683Z,16.57
2023-01-27T22:45:28.405Z,15.99
2023-01-27T22:47:54.965Z,16.35
2023-01-27T22:50:21.421Z,16.07
2023-01-27T22:52:47.917Z,15.85
2023-01-27T22:55:16.122Z,15.74
2023-01-27T22:57:44.712Z,15.82
2023-01-27T23:00:15.146Z,15.75
2023-01-27T23:02:41.921Z,15.69
2023-01-27T23:05:14.225Z,16.28
2023-01-27T23:07:40.882Z,15.14
2023-01-27T23:10:07.951Z,15.66
2023-01-27T23:12:34.456Z,14.94
2023-01-27T23:15:01.287Z,15.68
2023-01-27T23:17:27.930Z,15.66
2023-01-27T23:19:54.432Z,15.66
2023-01-27T23:22:28.226Z,15.53
2023-01-27T23:24:54.880Z,15.87
2023-01-27T23:27:21.434Z,15.56
2023-01-27T23:29:48.106Z,16.32
2023-01-27T23:32:14.740Z,15.71
2023-01-27T23:34:47.546Z,15.83
2023-01-27T23:37:14.355Z,15.91
2023-01-27T23:39:43.823Z,15.99
2023-01-27T23:42:10.508Z,16.53
2023-01-27T23:44:37.277Z,16.56
2023-01-27T23:47:03.810Z,16.51
2023-01-27T23:49:30.293Z,16.49
2023-01-27T23:51:56.775Z,16.49
2023-01-27T23:54:23.243Z,16.42
2023-01-27T23:56:49.735Z,16.00
2023-01-27T23:59:16.229Z,15.89
